Airfield :
LOGIN :

Register | Disclaimer

   EN    FR    IT 

 










Legend :    VFR   Marginal VFR   IFR   Intensive IFR   Very Intensive IFR
Visi :
Ceiling :
>= 8 km
>= 3000ft
5 to 8 km
1000 to 3000 ft
1500m to 5 km
500 to 1000 ft
800 to 1500m
200 to 500 ft
< 800m
< 200 ft
Symbols :   Thunderstorms  Fog  Heavy snow  Heavy precipitations  Wind > 20 kt
SIGMETs :     Misc.  Thunderstorms  Icing  Turbulence  Mountain Waves  Volcanic Ashes







- Airport Elevation : 375 ft
- IATA code : MST


EHBK - Maastricht Aachen

CURRENT METAR :
  • 211025Z AUTO 22007KT 8000 FEW007 03/02 Q1016 BECMG 8000

EXPIRED METARs :
  • 210955Z AUTO 23006KT 6000 NSC 02/02 Q1016 NOSIG
  • 210925Z AUTO 23007KT 5000 BR NSC 02/01 Q1015 BECMG 5000 BR
  • 210855Z AUTO 23006KT 3900 BR FEW002 BKN028 01/01 Q1015 BECMG 3000 BR
  • 210825Z AUTO 22007KT 2500 BR FEW002 OVC004 00/00 Q1015 BECMG 3000 BR
  • 210755Z AUTO 22006KT 2600 BR SCT002 M01/M01 Q1014 BECMG 3000 BR
  • 210725Z AUTO 23006KT 2200 BR BKN001 BKN002 00/M00 Q1014 BECMG 3000 BR BKN003

TAF AMD TAF EHBK
Valid from the 21 at 07:00 until the 22 at 12:00 UTC


210738Z 2107/2212 25005KT 2000 BR SCT002 BKN003
BECMG 2107/2109 6000 NSW FEW020
BECMG 2107/2109 9999
BECMG 2120/2123 17010KT 7000 -RADZ
TEMPO 2120/2201 4000 DZRA BKN012
PROB30
TEMPO 2120/2123 2500 RASN BKN009
BECMG 2203/2206 23010KT 2500 BKN006
PROB40
TEMPO 2203/2209 4000 DZ BKN002
BECMG 2209/2211 6000 NSW BKN010
No reported NOTAMs for that airfield.



MET'MAP, your aeronautical weather chart ! - Copyright ORBIFLY December 2007 - Disclaimer

ORBIFLY MET'MAP TEAM :

Programming & Development : Alexandra Zaïnal
Concept & Development : Baudouin d'Aumeries
Co-Development & Prog : Marc-Olivier Méhu
Technical & hardware support : Manuel Goepfert

Contact : metmap@orbifly.com




SOURCES & CREDITS :

   NOAA